Winona Lake, IN

6:09 PM EST on December 06, 2016 (GMT -0500)
Winona Lake | | Change Station

Elev 820 ft 41.22 °N, 85.82 °W | Updated 3 minutes ago

Haze
Haze
37.3 °F
Feels Like 32 °F
N
7.0
Wind Variable Wind from NW
Gusts 15.0 mph

Today
High -- | Low -- °F
--% Chance of Precip.
Yesterday
High -- | Low -- °F
Precip. -- in
Pressure 29.82 in
Visibility 5.0 miles
Clouds Overcast 1300 ft
Windchill 32 °F
Dew Point 35 °F
Humidity 90%
Rainfall 0.00 in
Snow Depth Not available.
7:54 AM 5:14 PM
Waxing Crescent, 46% visible
METAR KASW 062255Z AUTO 27012G17KT 5SM HZ OVC013 02/00 A2982 RMK AO2
Pressure 29.82 in
Visibility 5.0 miles
Clouds Overcast 1300 ft
Windchill 32 °F
Dew Point 35 °F
Humidity 90%
Rainfall 0.00 in
Snow Depth Not available.
7:54 AM 5:14 PM
Waxing Crescent, 46% visible
METAR KASW 062255Z AUTO 27012G17KT 5SM HZ OVC013 02/00 A2982 RMK AO2

10-Day Weather Forecast

Almanac

Astronomy

Dec. 06, 2016 Rise Set
Actual Time
Civil Twilight
Nautical Twilight
Astronomical Twilight
Moon
Length of Visible Light
Length of Day
Tomorrow will be .
, % of the Moon is Illuminated

Today's Extremes

State Highs State Lows

Community

WunderPhotos

Upload Photos

1,956,042 photos uploaded!

WunderBlog® & News

Nearby

Air Quality

  Air Quality AQ Index Pollutant
Not available.

Snow Depth

Station Depth Elevation

Earthquake Activity

City Distance Mag. Time & Date
Minimum magnitude displayed is 2.5.

Coastal Water Temperatures

Place Temperature

Stations

Nearby Weather Stations

Station Location Temp. Windchill Dew Point Humidity Wind Precip. Elev Updated Type
                   

Watches & Warnings

There are currently no watches in effect.